Time;durP1;ratioP1;P1;durP2;ratioP2;P2;SDS_P1;SDS_P2;PMS_P1;PMS_P2;Temp;Humidity;BMP_temperature;BMP_pressure;BME280_temperature;BME280_humidity;BME280_pressure;Samples;Min_cycle;Max_cycle;Signal;HPM_P1;HPM_P2
2021/10/14 00:00:09;;;;;;;13.00;10.20;;;;;;;2.28;100.00;97013.22;1023597;29;20690;-50
2021/10/14 00:00:40;;;;;;;14.35;10.02;;;;;;;2.28;100.00;97018.41;1028095;28;20469;-51
2021/10/14 00:01:11;;;;;;;14.35;9.70;;;;;;;2.29;100.00;97009.75;1027229;28;20278;-54
2021/10/14 00:01:41;;;;;;;15.02;10.23;;;;;;;2.28;100.00;97011.47;1027411;28;20033;-50
2021/10/14 00:02:12;;;;;;;14.85;10.20;;;;;;;2.27;100.00;97012.38;1023629;29;20298;-50
2021/10/14 00:02:43;;;;;;;14.73;10.00;;;;;;;2.27;100.00;97014.09;1019589;28;20031;-51
2021/10/14 00:03:14;;;;;;;13.25;9.68;;;;;;;2.26;100.00;97015.00;1023438;29;20070;-51
2021/10/14 00:03:44;;;;;;;16.55;10.55;;;;;;;2.24;100.00;97022.78;1035442;28;20044;-53
2021/10/14 00:04:15;;;;;;;14.68;10.80;;;;;;;2.22;100.00;97014.19;1031572;28;20584;-51
2021/10/14 00:04:46;;;;;;;15.65;9.90;;;;;;;2.19;100.00;97016.84;1023636;28;20412;-51
2021/10/14 00:05:16;;;;;;;16.20;10.88;;;;;;;2.14;100.00;97010.94;1031746;28;20424;-51
2021/10/14 00:05:47;;;;;;;16.55;11.15;;;;;;;2.12;100.00;97010.06;1031455;28;20025;-51
2021/10/14 00:06:18;;;;;;;13.88;10.15;;;;;;;2.10;100.00;97023.06;1032069;28;20027;-50
2021/10/14 00:06:49;;;;;;;17.10;11.23;;;;;;;2.11;100.00;97014.41;1035447;28;20249;-53
2021/10/14 00:07:19;;;;;;;13.63;10.18;;;;;;;2.12;100.00;97023.88;1031674;28;20460;-50
2021/10/14 00:07:50;;;;;;;14.57;10.23;;;;;;;2.13;100.00;97022.97;1027593;28;20534;-50
2021/10/14 00:08:20;;;;;;;14.00;9.77;;;;;;;2.13;100.00;97025.56;1019620;29;20096;-50
2021/10/14 00:08:51;;;;;;;13.98;10.75;;;;;;;2.14;100.00;97018.69;1019785;28;20466;-51
2021/10/14 00:09:22;;;;;;;12.57;10.05;;;;;;;2.14;100.00;97023.84;1019906;29;20475;-51
2021/10/14 00:09:53;;;;;;;13.68;9.90;;;;;;;2.14;100.00;97019.53;1035428;28;20133;-51
2021/10/14 00:10:23;;;;;;;15.05;10.40;;;;;;;2.12;100.00;97026.47;1031564;28;20018;-51
2021/10/14 00:10:54;;;;;;;14.43;10.48;;;;;;;2.16;100.00;97026.38;1027673;28;20030;-51
2021/10/14 00:11:25;;;;;;;14.93;10.13;;;;;;;2.16;100.00;97029.84;1027668;28;20057;-50
2021/10/14 00:11:55;;;;;;;15.50;11.93;;;;;;;2.17;100.00;97022.94;1027818;28;20105;-50
2021/10/14 00:12:26;;;;;;;15.60;10.68;;;;;;;2.14;100.00;97016.94;1027375;28;20469;-50
2021/10/14 00:12:57;;;;;;;16.88;10.55;;;;;;;2.12;100.00;97020.41;1023380;29;20030;-52
2021/10/14 00:13:28;;;;;;;15.32;10.98;;;;;;;2.14;100.00;97016.94;1015776;29;20276;-50
2021/10/14 00:13:59;;;;;;;15.52;10.32;;;;;;;2.10;100.00;97012.72;1019537;29;20027;-51
2021/10/14 00:14:29;;;;;;;14.57;10.98;;;;;;;2.06;100.00;97018.81;1027647;28;20444;-52
2021/10/14 00:15:00;;;;;;;18.77;11.70;;;;;;;2.07;100.00;97017.09;1031490;28;20188;-51
2021/10/14 00:15:31;;;;;;;15.93;11.82;;;;;;;2.07;100.00;97019.69;1023625;28;20027;-50
2021/10/14 00:16:01;;;;;;;13.77;10.40;;;;;;;2.06;100.00;97018.81;1015535;29;20157;-50
2021/10/14 00:16:32;;;;;;;16.00;10.52;;;;;;;2.05;100.00;97019.69;1023610;29;20059;-50
2021/10/14 00:17:03;;;;;;;16.70;11.63;;;;;;;2.05;100.00;97024.03;1027709;28;20027;-51
2021/10/14 00:17:33;;;;;;;17.30;11.77;;;;;;;2.05;100.00;97024.88;1031749;28;20014;-51
2021/10/14 00:18:04;;;;;;;19.02;11.65;;;;;;;2.03;100.00;97018.88;1035550;28;20022;-51
2021/10/14 00:18:35;;;;;;;17.02;11.27;;;;;;;2.01;100.00;97022.34;1031664;28;20116;-51
2021/10/14 00:19:05;;;;;;;19.10;12.40;;;;;;;1.99;100.00;97017.25;1031474;28;20041;-52
2021/10/14 00:19:36;;;;;;;14.95;10.60;;;;;;;2.01;100.00;97019.78;1027538;28;20031;-51
2021/10/14 00:20:07;;;;;;;16.50;11.55;;;;;;;1.98;100.00;97015.53;1023905;28;20102;-49
2021/10/14 00:20:38;;;;;;;13.85;10.23;;;;;;;1.98;100.00;97025.03;1031709;28;20488;-52
2021/10/14 00:21:08;;;;;;;14.60;10.75;;;;;;;1.96;100.00;97022.47;1027859;28;20346;-49
2021/10/14 00:21:39;;;;;;;14.60;10.23;;;;;;;1.97;100.00;97021.59;1031676;28;20105;-50
2021/10/14 00:22:10;;;;;;;14.88;10.75;;;;;;;1.96;100.00;97019.88;1027437;28;20054;-51
2021/10/14 00:22:40;;;;;;;15.48;11.43;;;;;;;1.98;100.00;97017.28;1023561;29;20086;-51
2021/10/14 00:23:11;;;;;;;15.80;11.27;;;;;;;1.98;100.00;97020.69;1019500;29;20367;-54
2021/10/14 00:23:42;;;;;;;15.93;11.18;;;;;;;1.96;100.00;97019.03;1023486;29;20079;-50
2021/10/14 00:24:13;;;;;;;16.85;11.32;;;;;;;1.95;100.00;97020.75;1019549;29;20023;-51
2021/10/14 00:24:43;;;;;;;17.15;11.82;;;;;;;1.94;100.00;97021.63;1027319;28;20034;-53
2021/10/14 00:25:14;;;;;;;20.98;12.10;;;;;;;1.98;100.00;97028.44;1027551;28;20038;-51
2021/10/14 00:25:45;;;;;;;16.27;11.15;;;;;;;1.97;100.00;97028.47;1031675;28;20038;-50
2021/10/14 00:26:16;;;;;;;14.20;10.68;;;;;;;1.96;100.00;97022.47;1035522;28;20022;-53
2021/10/14 00:26:46;;;;;;;15.50;10.38;;;;;;;1.95;100.00;97020.75;1031485;28;20093;-51
2021/10/14 00:27:18;;;;;;;16.00;11.73;;;;;;;1.91;100.00;97024.28;1031528;28;20217;-51
2021/10/14 00:27:49;;;;;;;16.48;11.30;;;;;;;1.92;100.00;97024.25;1031340;28;20026;-51
2021/10/14 00:28:20;;;;;;;15.15;11.60;;;;;;;1.92;100.00;97019.09;1023829;28;20271;-51
2021/10/14 00:28:50;;;;;;;17.98;12.20;;;;;;;1.92;100.00;97018.25;1023852;28;20355;-51
2021/10/14 00:29:21;;;;;;;15.65;11.18;;;;;;;1.91;100.00;97024.28;1023563;28;20304;-51
2021/10/14 00:29:52;;;;;;;14.80;10.95;;;;;;;1.92;100.00;97026.00;1023869;28;20126;-54
2021/10/14 00:30:22;;;;;;;17.10;11.88;;;;;;;1.91;100.00;97019.09;1027830;28;20424;-52
2021/10/14 00:30:53;;;;;;;18.42;11.95;;;;;;;1.91;100.00;97024.28;1027657;28;20460;-51
2021/10/14 00:31:24;;;;;;;15.25;10.55;;;;;;;1.88;100.00;97022.59;1023614;29;20394;-51
2021/10/14 00:31:54;;;;;;;18.15;12.10;;;;;;;1.92;100.00;97023.41;1027579;28;20023;-50
2021/10/14 00:32:25;;;;;;;14.98;11.48;;;;;;;1.92;100.00;97019.09;1027559;28;20065;-51
2021/10/14 00:32:55;;;;;;;14.45;10.57;;;;;;;1.91;100.00;97019.94;1027448;28;20105;-49
2021/10/14 00:33:26;;;;;;;15.85;11.07;;;;;;;1.87;100.00;97017.47;1019552;28;20028;-51
2021/10/14 00:33:57;;;;;;;16.00;11.00;;;;;;;1.89;100.00;97010.53;1027513;28;20110;-50
2021/10/14 00:34:28;;;;;;;17.80;11.80;;;;;;;1.87;100.00;97013.13;1027722;28;20461;-51
2021/10/14 00:34:58;;;;;;;17.17;11.18;;;;;;;1.86;100.00;97013.16;1027453;28;20270;-51
2021/10/14 00:35:29;;;;;;;15.27;10.73;;;;;;;1.86;100.00;97015.75;1023416;28;20062;-51
2021/10/14 00:36:00;;;;;;;16.05;11.18;;;;;;;1.86;100.00;97018.31;1023533;29;20031;-51
2021/10/14 00:36:30;;;;;;;17.33;12.23;;;;;;;1.91;100.00;97013.94;1019559;29;20505;-51
2021/10/14 00:37:01;;;;;;;17.52;12.20;;;;;;;1.90;100.00;97010.50;1019655;29;20028;-51
2021/10/14 00:37:32;;;;;;;15.23;11.48;;;;;;;1.90;100.00;97009.66;1023668;28;20032;-52
2021/10/14 00:38:03;;;;;;;15.38;10.88;;;;;;;1.91;100.00;97013.94;1024004;28;20303;-51
2021/10/14 00:38:33;;;;;;;17.00;11.27;;;;;;;1.92;100.00;97018.25;1031545;28;20026;-50
2021/10/14 00:39:04;;;;;;;17.23;11.70;;;;;;;1.93;100.00;97017.34;1031433;28;20558;-51
2021/10/14 00:39:34;;;;;;;17.20;12.20;;;;;;;1.97;100.00;97023.31;1027594;28;20023;-50
2021/10/14 00:40:06;;;;;;;15.52;11.20;;;;;;;1.99;100.00;97026.72;1031428;28;20023;-51
2021/10/14 00:40:37;;;;;;;17.45;11.68;;;;;;;1.94;100.00;97019.06;1035487;28;20022;-50
2021/10/14 00:41:08;;;;;;;16.35;11.52;;;;;;;1.92;100.00;97016.50;1027432;28;20681;-51
2021/10/14 00:41:39;;;;;;;16.50;11.95;;;;;;;1.94;100.00;97024.22;1019712;28;20107;-53
2021/10/14 00:42:11;;;;;;;17.00;11.82;;;;;;;1.94;100.00;97017.31;1027417;28;20027;-51
2021/10/14 00:42:44;;;;;;;17.80;11.52;;;;;;;1.97;100.00;97015.56;1027916;28;20270;-51
2021/10/14 00:43:15;;;;;;;15.65;11.85;;;;;;;1.95;100.00;97015.56;1032231;28;20277;-51
2021/10/14 00:43:46;;;;;;;14.88;11.30;;;;;;;1.98;100.00;97020.69;1034981;28;20387;-51
2021/10/14 00:44:16;;;;;;;14.85;11.57;;;;;;;2.00;100.00;97008.59;1023530;28;20047;-54
2021/10/14 00:44:49;;;;;;;16.35;11.27;;;;;;;2.02;100.00;97016.31;1019780;29;20525;-51
2021/10/14 00:45:20;;;;;;;16.38;11.85;;;;;;;1.98;100.00;97018.13;1015928;29;20024;-51
2021/10/14 00:45:50;;;;;;;18.15;11.93;;;;;;;1.99;100.00;97017.25;1016593;29;20838;-52
2021/10/14 00:46:21;;;;;;;16.67;12.77;;;;;;;1.99;100.00;97019.84;1023975;28;20306;-51
2021/10/14 00:46:53;;;;;;;17.13;11.82;;;;;;;1.98;100.00;97020.69;1023505;29;20077;-51
2021/10/14 00:47:25;;;;;;;16.17;11.88;;;;;;;1.98;100.00;97032.78;1027369;28;20465;-51
2021/10/14 00:47:56;;;;;;;16.25;11.30;;;;;;;1.99;100.00;97031.88;1027456;28;20258;-49
2021/10/14 00:48:27;;;;;;;16.52;11.65;;;;;;;1.99;100.00;97035.34;1031410;28;20789;-53
2021/10/14 00:48:57;;;;;;;16.33;10.52;;;;;;;1.98;100.00;97028.44;1023664;28;20055;-51
2021/10/14 00:49:28;;;;;;;16.13;11.38;;;;;;;1.98;100.00;97028.44;1027588;28;20130;-51
2021/10/14 00:49:59;;;;;;;15.98;11.38;;;;;;;1.96;100.00;97035.38;1027640;28;20508;-49
2021/10/14 00:50:29;;;;;;;16.20;11.65;;;;;;;1.97;100.00;97033.66;1027606;28;20022;-51
2021/10/14 00:51:01;;;;;;;14.98;10.50;;;;;;;1.98;100.00;97036.19;1027589;28;20118;-50
2021/10/14 00:51:32;;;;;;;15.35;11.05;;;;;;;1.99;100.00;97026.72;1031287;28;20036;-50
2021/10/14 00:52:03;;;;;;;21.15;12.02;;;;;;;2.00;100.00;97029.28;1027406;28;20355;-53
2021/10/14 00:52:35;;;;;;;16.13;11.88;;;;;;;1.97;100.00;97031.94;1015532;29;20072;-51
2021/10/14 00:53:07;;;;;;;18.38;12.45;;;;;;;1.92;100.00;97031.16;1015430;29;20027;-50
2021/10/14 00:53:38;;;;;;;20.25;12.70;;;;;;;1.90;100.00;97032.91;1016177;29;20731;-51
2021/10/14 00:54:09;;;;;;;17.90;12.43;;;;;;;1.90;100.00;97032.91;1024938;28;20263;-51
2021/10/14 00:54:40;;;;;;;16.92;11.80;;;;;;;1.91;100.00;97034.59;1031989;28;20272;-51
2021/10/14 00:55:12;;;;;;;18.10;12.10;;;;;;;1.90;100.00;97033.75;1023572;28;20110;-50
2021/10/14 00:55:43;;;;;;;17.38;12.40;;;;;;;1.90;100.00;97020.84;1023475;29;20211;-49
2021/10/14 00:56:14;;;;;;;17.00;11.93;;;;;;;1.92;100.00;97026.00;1027562;28;20260;-50
2021/10/14 00:56:45;;;;;;;18.77;13.20;;;;;;;1.92;100.00;97021.66;1024027;28;20346;-52
2021/10/14 00:57:17;;;;;;;17.20;12.30;;;;;;;1.93;100.00;97022.50;1023505;29;20283;-51
2021/10/14 00:57:49;;;;;;;16.60;10.75;;;;;;;1.90;100.00;97015.69;1023325;28;20279;-51
2021/10/14 00:58:20;;;;;;;17.67;11.65;;;;;;;1.91;100.00;97014.78;1023658;28;20282;-52
2021/10/14 00:58:50;;;;;;;20.00;12.73;;;;;;;1.90;100.00;97009.66;1024136;28;20322;-50
2021/10/14 00:59:21;;;;;;;17.25;11.90;;;;;;;1.93;100.00;97020.81;1028082;28;20489;-50
2021/10/14 00:59:52;;;;;;;18.38;12.68;;;;;;;1.91;100.00;97016.53;1024213;29;20382;-52
2021/10/14 01:00:23;;;;;;;16.02;12.02;;;;;;;1.89;100.00;97016.53;1024300;28;20433;-50
2021/10/14 01:00:53;;;;;;;17.38;12.38;;;;;;;1.92;100.00;97024.25;1028330;28;20298;-51
2021/10/14 01:01:24;;;;;;;18.95;12.38;;;;;;;1.89;100.00;97026.03;1032189;28;20030;-50
2021/10/14 01:01:54;;;;;;;19.38;12.40;;;;;;;1.89;100.00;97028.63;1016341;29;20115;-51
2021/10/14 01:02:25;;;;;;;18.05;12.57;;;;;;;1.87;100.00;97020.88;1020137;28;20538;-50
2021/10/14 01:02:56;;;;;;;17.70;11.18;;;;;;;1.87;100.00;97026.06;1020272;29;20108;-51
2021/10/14 01:03:27;;;;;;;16.45;12.32;;;;;;;1.88;100.00;97030.38;1020383;29;20103;-50
2021/10/14 01:03:58;;;;;;;17.77;12.13;;;;;;;1.87;100.00;97028.66;1024192;29;20330;-51
2021/10/14 01:04:29;;;;;;;17.63;12.57;;;;;;;1.89;100.00;97028.63;1028235;28;20027;-51
2021/10/14 01:05:00;;;;;;;16.33;12.15;;;;;;;1.87;100.00;97023.47;1032260;28;20026;-51
2021/10/14 01:05:30;;;;;;;17.63;12.30;;;;;;;1.86;100.00;97020.91;1028235;28;20274;-50
2021/10/14 01:06:01;;;;;;;18.20;11.80;;;;;;;1.86;100.00;97020.91;1028132;28;20022;-51
2021/10/14 01:06:32;;;;;;;19.33;12.35;;;;;;;1.82;100.00;97022.72;1024341;28;20059;-49
2021/10/14 01:07:03;;;;;;;30.75;12.07;;;;;;;1.83;100.00;97021.00;1036235;28;20295;-50
2021/10/14 01:07:34;;;;;;;19.38;12.38;;;;;;;1.84;100.00;97020.97;1036161;28;20032;-52
2021/10/14 01:08:04;;;;;;;18.33;11.77;;;;;;;1.82;100.00;97022.72;1024072;29;20095;-52
2021/10/14 01:08:35;;;;;;;17.27;12.02;;;;;;;1.88;100.00;97025.19;1024378;29;20026;-51
2021/10/14 01:09:06;;;;;;;18.13;12.82;;;;;;;1.88;100.00;97019.19;1028139;28;20524;-52
2021/10/14 01:09:38;;;;;;;18.20;12.55;;;;;;;1.88;100.00;97029.53;1024562;28;20115;-51
2021/10/14 01:10:09;;;;;;;19.30;12.82;;;;;;;1.85;100.00;97026.97;1024132;29;20535;-50
2021/10/14 01:10:40;;;;;;;17.95;11.82;;;;;;;1.79;100.00;97022.78;1024452;28;20764;-53
2021/10/14 01:11:11;;;;;;;19.65;13.98;;;;;;;1.77;100.00;97026.28;1024664;28;20255;-50
2021/10/14 01:11:42;;;;;;;19.85;12.93;;;;;;;1.77;100.00;97026.28;1032802;28;20029;-50
2021/10/14 01:12:13;;;;;;;20.38;13.27;;;;;;;1.77;100.00;97026.28;1036204;28;20347;-51
2021/10/14 01:12:44;;;;;;;17.08;12.55;;;;;;;1.74;100.00;97025.44;1036481;28;20103;-56
2021/10/14 01:13:15;;;;;;;17.13;12.18;;;;;;;1.71;100.00;97027.25;1031882;28;20058;-51
2021/10/14 01:13:46;;;;;;;17.08;11.75;;;;;;;1.70;100.00;97028.94;1016394;29;20032;-51
2021/10/14 01:14:17;;;;;;;21.98;13.15;;;;;;;1.69;100.00;97027.25;1016366;29;20644;-51
2021/10/14 01:14:47;;;;;;;18.00;12.18;;;;;;;1.68;100.00;97028.13;1024570;28;20324;-50
2021/10/14 01:15:22;;;;;;;20.85;13.65;;;;;;;1.65;100.00;97022.16;1028338;28;20125;-52
2021/10/14 01:15:52;;;;;;;22.50;13.18;;;;;;;1.67;100.00;97023.84;1024254;28;20031;-51
2021/10/14 01:16:23;;;;;;;18.90;12.00;;;;;;;1.64;100.00;97026.47;1024185;29;20737;-51
2021/10/14 01:16:54;;;;;;;20.25;12.52;;;;;;;1.66;100.00;97024.72;1025517;28;20023;-50
2021/10/14 01:17:25;;;;;;;19.50;14.07;;;;;;;1.71;100.00;97027.25;1028205;28;20524;-51
2021/10/14 01:17:56;;;;;;;22.23;14.05;;;;;;;1.68;100.00;97022.97;1032289;28;20250;-50
2021/10/14 01:18:27;;;;;;;20.95;13.80;;;;;;;1.64;100.00;97026.47;1032597;28;20046;-50
2021/10/14 01:18:58;;;;;;;20.17;13.55;;;;;;;1.65;100.00;97027.31;1028550;28;20680;-50
2021/10/14 01:19:28;;;;;;;18.35;13.55;;;;;;;1.66;100.00;97023.88;1027967;28;20015;-53
2021/10/14 01:19:59;;;;;;;17.80;12.70;;;;;;;1.66;100.00;97019.56;1020414;29;20043;-52
2021/10/14 01:20:29;;;;;;;19.65;13.65;;;;;;;1.69;100.00;97023.81;1031956;28;20101;-50
2021/10/14 01:21:00;;;;;;;25.42;14.45;;;;;;;1.65;100.00;97025.63;1040280;28;20021;-54
2021/10/14 01:21:32;;;;;;;18.83;12.88;;;;;;;1.65;100.00;97027.31;1028203;28;20102;-50
2021/10/14 01:22:02;;;;;;;20.65;14.02;;;;;;;1.65;100.00;97025.63;1032117;28;20022;-53
2021/10/14 01:22:33;;;;;;;22.77;14.00;;;;;;;1.64;100.00;97017.91;1024114;28;20309;-50
2021/10/14 01:23:04;;;;;;;20.48;12.63;;;;;;;1.63;100.00;97011.84;1020091;29;20047;-50
2021/10/14 01:23:35;;;;;;;23.30;15.50;;;;;;;1.61;100.00;97015.34;1028094;28;20053;-51
2021/10/14 01:24:06;;;;;;;23.98;13.43;;;;;;;1.60;100.00;97014.50;1028231;28;20017;-50
2021/10/14 01:24:36;;;;;;;25.00;15.27;;;;;;;1.60;100.00;97011.09;1036067;28;20268;-53
2021/10/14 01:25:08;;;;;;;26.45;14.98;;;;;;;1.52;100.00;97004.31;1032135;28;20064;-50
2021/10/14 01:25:38;;;;;;;23.00;13.95;;;;;;;1.53;100.00;97007.75;1028159;28;20061;-54
2021/10/14 01:26:09;;;;;;;21.65;13.45;;;;;;;1.50;100.00;97007.78;1020401;29;20267;-51
2021/10/14 01:26:40;;;;;;;22.80;14.02;;;;;;;1.53;100.00;97008.59;1032241;28;20018;-51
2021/10/14 01:27:11;;;;;;;25.35;14.98;;;;;;;1.52;100.00;97006.91;1032044;28;20022;-51
2021/10/14 01:27:42;;;;;;;21.50;14.35;;;;;;;1.54;100.00;97006.88;1028149;28;20293;-50
2021/10/14 01:28:13;;;;;;;21.10;13.85;;;;;;;1.51;100.00;96999.16;1024122;28;20501;-52
2021/10/14 01:28:44;;;;;;;18.25;13.95;;;;;;;1.48;100.00;97006.97;1020403;29;20267;-51
2021/10/14 01:29:15;;;;;;;23.08;14.80;;;;;;;1.49;100.00;97004.34;1027926;28;20266;-52
2021/10/14 01:29:45;;;;;;;19.83;14.48;;;;;;;1.48;100.00;97010.41;1032259;28;20558;-50
2021/10/14 01:30:17;;;;;;;20.75;13.38;;;;;;;1.47;100.00;97005.28;1028159;28;20110;-51
2021/10/14 01:30:47;;;;;;;20.85;14.07;;;;;;;1.44;100.00;97007.91;1028463;28;20022;-51
2021/10/14 01:31:18;;;;;;;21.65;13.85;;;;;;;1.46;100.00;97006.13;1028067;28;20354;-51
2021/10/14 01:31:49;;;;;;;21.33;13.63;;;;;;;1.45;100.00;97007.88;1023898;28;20047;-52
2021/10/14 01:32:20;;;;;;;24.00;15.00;;;;;;;1.45;100.00;97004.44;1023925;28;20302;-49
2021/10/14 01:32:50;;;;;;;23.42;15.05;;;;;;;1.45;100.00;97012.19;1027969;28;20094;-49
2021/10/14 01:33:21;;;;;;;19.25;12.68;;;;;;;1.43;100.00;97004.47;1028554;28;20278;-51
2021/10/14 01:33:52;;;;;;;21.77;13.30;;;;;;;1.41;100.00;97002.78;1027945;28;20121;-51
2021/10/14 01:34:23;;;;;;;27.10;14.75;;;;;;;1.39;100.00;97002.81;1024403;28;20042;-53
2021/10/14 01:34:54;;;;;;;21.30;13.98;;;;;;;1.41;100.00;97000.19;1028171;28;20655;-51
2021/10/14 01:35:25;;;;;;;22.13;14.00;;;;;;;1.39;100.00;96999.38;1032003;28;20034;-54
2021/10/14 01:35:55;;;;;;;23.13;14.80;;;;;;;1.42;100.00;97004.50;1028147;28;20365;-50
2021/10/14 01:36:26;;;;;;;24.08;14.45;;;;;;;1.39;100.00;97000.25;1028078;28;20039;-51
2021/10/14 01:36:57;;;;;;;21.20;14.07;;;;;;;1.36;100.00;97000.28;1028122;28;20420;-53
2021/10/14 01:37:28;;;;;;;24.08;14.25;;;;;;;1.35;100.00;97001.16;1027858;28;20030;-51
2021/10/14 01:37:59;;;;;;;19.75;12.98;;;;;;;1.38;100.00;96995.94;1032194;28;20057;-51
2021/10/14 01:38:29;;;;;;;21.73;12.98;;;;;;;1.37;100.00;97002.00;1027965;28;20122;-52
2021/10/14 01:39:00;;;;;;;22.13;13.70;;;;;;;1.38;100.00;96997.69;1032127;28;20037;-51
2021/10/14 01:39:31;;;;;;;22.80;14.57;;;;;;;1.33;100.00;97000.31;1023966;29;20382;-49
2021/10/14 01:40:04;;;;;;;21.40;13.75;;;;;;;1.32;100.00;96998.63;1020185;29;20275;-51
2021/10/14 01:40:35;;;;;;;20.25;13.45;;;;;;;1.31;100.00;96997.78;1024136;29;20050;-50
2021/10/14 01:41:05;;;;;;;21.13;14.35;;;;;;;1.30;100.00;96998.66;1024081;29;20793;-53
2021/10/14 01:41:36;;;;;;;23.05;14.77;;;;;;;1.30;100.00;97002.97;1027879;28;20596;-50
2021/10/14 01:42:07;;;;;;;24.45;15.07;;;;;;;1.29;100.00;96999.53;1024006;29;20065;-50
2021/10/14 01:42:37;;;;;;;25.17;15.38;;;;;;;1.29;100.00;97007.25;1027953;28;20023;-51
2021/10/14 01:43:13;;;;;;;20.13;13.85;;;;;;;1.26;100.00;97007.34;1019870;29;20031;-50
2021/10/14 01:43:44;;;;;;;28.65;15.98;;;;;;;1.14;100.00;96989.44;1027979;28;20503;-50
2021/10/14 01:44:14;;;;;;;24.73;14.77;;;;;;;1.22;100.00;97003.09;1032062;28;20288;-50
2021/10/14 01:44:45;;;;;;;22.65;14.35;;;;;;;1.17;100.00;97005.75;1032070;28;20026;-53
2021/10/14 01:45:16;;;;;;;20.00;13.45;;;;;;;1.15;100.00;97004.09;1024126;29;20529;-51
2021/10/14 01:45:46;;;;;;;25.88;13.90;;;;;;;1.16;100.00;97008.34;1028064;28;20047;-49
2021/10/14 01:46:17;;;;;;;25.90;15.43;;;;;;;1.14;100.00;97010.09;1028085;28;20412;-51
2021/10/14 01:46:48;;;;;;;22.20;14.50;;;;;;;1.16;100.00;97009.22;1032121;28;20027;-51
2021/10/14 01:47:19;;;;;;;22.75;14.80;;;;;;;1.21;100.00;97016.03;1028303;28;20481;-51
2021/10/14 01:47:49;;;;;;;22.17;14.40;;;;;;;1.17;100.00;97007.47;1027852;28;20030;-53
2021/10/14 01:48:20;;;;;;;20.90;14.77;;;;;;;1.18;100.00;97006.59;1024078;28;20274;-51
2021/10/14 01:48:51;;;;;;;23.45;13.93;;;;;;;1.17;100.00;97010.06;1028275;28;20069;-50
2021/10/14 01:49:22;;;;;;;24.13;14.43;;;;;;;1.17;100.00;97000.59;1028463;28;20027;-52
2021/10/14 01:49:52;;;;;;;22.10;13.98;;;;;;;1.19;100.00;97008.31;1027912;28;20042;-50
2021/10/14 01:50:23;;;;;;;21.83;14.02;;;;;;;1.21;100.00;97003.97;1032149;28;20042;-49
2021/10/14 01:50:55;;;;;;;21.52;14.45;;;;;;;1.22;100.00;97007.41;1032185;28;20034;-52
2021/10/14 01:51:25;;;;;;;22.77;14.80;;;;;;;1.21;100.00;97003.97;1032462;28;20449;-53
2021/10/14 01:51:56;;;;;;;26.15;15.10;;;;;;;1.25;100.00;97004.78;1023984;28;20262;-50
2021/10/14 01:52:27;;;;;;;26.95;16.15;;;;;;;1.24;100.00;97001.34;1031839;28;20026;-50
2021/10/14 01:52:58;;;;;;;25.27;15.55;;;;;;;1.25;100.00;96997.03;1031758;28;20077;-53
2021/10/14 01:53:28;;;;;;;21.98;14.95;;;;;;;1.23;100.00;96997.06;1024096;28;20508;-51
2021/10/14 01:53:59;;;;;;;24.67;16.00;;;;;;;1.23;100.00;96997.06;1020100;28;20027;-50
2021/10/14 01:54:30;;;;;;;20.42;14.25;;;;;;;1.23;100.00;97002.22;1028045;28;20487;-53
2021/10/14 01:55:00;;;;;;;23.67;14.50;;;;;;;1.23;100.00;96993.63;1027999;28;20030;-50
2021/10/14 01:55:31;;;;;;;23.67;15.27;;;;;;;1.20;100.00;96993.66;1023971;28;20051;-49
2021/10/14 01:56:02;;;;;;;27.00;15.70;;;;;;;1.20;100.00;97002.25;1024023;29;20054;-52
2021/10/14 01:56:32;;;;;;;22.20;15.07;;;;;;;1.17;100.00;96995.41;1027951;28;20030;-50
2021/10/14 01:57:03;;;;;;;24.08;14.70;;;;;;;1.16;100.00;96998.03;1024368;28;20047;-49
2021/10/14 01:57:34;;;;;;;20.92;14.60;;;;;;;1.15;100.00;96999.75;1031847;28;20030;-51
2021/10/14 01:58:04;;;;;;;24.83;15.38;;;;;;;1.17;100.00;96995.41;1032161;28;20157;-51
2021/10/14 01:58:35;;;;;;;25.67;14.68;;;;;;;1.16;100.00;96996.31;1028142;28;20050;-51
2021/10/14 01:59:06;;;;;;;24.80;14.73;;;;;;;1.14;100.00;96992.03;1020159;29;20450;-51
2021/10/14 01:59:37;;;;;;;25.20;14.63;;;;;;;1.15;100.00;96997.19;1020107;29;20043;-51
2021/10/14 02:00:09;;;;;;;23.95;15.18;;;;;;;1.17;100.00;97007.47;1024009;29;20023;-50
2021/10/14 02:00:40;;;;;;;21.80;14.65;;;;;;;1.15;100.00;96999.75;1023993;28;20404;-51
2021/10/14 02:01:10;;;;;;;24.30;15.30;;;;;;;1.15;100.00;97001.50;1024690;28;20263;-51
2021/10/14 02:01:41;;;;;;;24.58;15.43;;;;;;;1.13;100.00;96998.94;1024430;28;20057;-51
2021/10/14 02:02:12;;;;;;;26.08;15.52;;;;;;;1.13;100.00;97001.50;1028334;28;20023;-53
2021/10/14 02:02:43;;;;;;;25.25;15.75;;;;;;;1.10;100.00;96998.97;1032118;28;20088;-51
2021/10/14 02:03:13;;;;;;;22.35;14.73;;;;;;;1.11;100.00;97008.44;1023962;29;20485;-51
2021/10/14 02:03:44;;;;;;;24.45;14.50;;;;;;;1.14;100.00;97000.63;1020410;29;20047;-50
2021/10/14 02:04:15;;;;;;;23.13;15.40;;;;;;;1.20;100.00;97001.41;1027974;28;20117;-50
2021/10/14 02:04:45;;;;;;;20.63;14.05;;;;;;;1.18;100.00;96996.25;1031851;28;20022;-51
2021/10/14 02:05:16;;;;;;;27.85;16.60;;;;;;;1.17;100.00;96999.75;1032208;28;20022;-54
2021/10/14 02:05:47;;;;;;;27.08;15.52;;;;;;;1.17;100.00;97004.91;1024064;28;20584;-51
2021/10/14 02:06:17;;;;;;;27.95;16.73;;;;;;;1.16;100.00;97000.59;1024196;28;20541;-51
2021/10/14 02:06:48;;;;;;;30.33;16.30;;;;;;;1.12;100.00;97004.13;1027907;28;20113;-51
2021/10/14 02:07:19;;;;;;;28.13;16.70;;;;;;;1.08;100.00;97000.72;1024172;28;20117;-50
2021/10/14 02:07:50;;;;;;;24.50;15.82;;;;;;;1.11;100.00;96997.25;1019903;29;20026;-51
2021/10/14 02:08:20;;;;;;;26.52;16.95;;;;;;;1.17;100.00;96997.16;1027947;28;20109;-53
2021/10/14 02:08:51;;;;;;;28.27;17.13;;;;;;;1.19;100.00;96997.97;1028115;28;20019;-51
2021/10/14 02:09:21;;;;;;;30.55;16.73;;;;;;;1.17;100.00;97004.91;1028071;28;20493;-49
2021/10/14 02:09:52;;;;;;;26.52;15.98;;;;;;;1.18;100.00;96996.25;1023770;28;20520;-51
2021/10/14 02:10:23;;;;;;;27.58;16.42;;;;;;;1.15;100.00;96998.91;1019996;29;20067;-51
2021/10/14 02:10:54;;;;;;;21.80;15.15;;;;;;;1.18;100.00;97001.44;1023987;28;20041;-51
2021/10/14 02:11:24;;;;;;;26.70;15.73;;;;;;;1.19;100.00;96995.41;1028016;28;20509;-54
2021/10/14 02:11:55;;;;;;;28.60;16.88;;;;;;;1.23;100.00;96998.78;1024014;29;20034;-50
2021/10/14 02:12:26;;;;;;;28.33;17.23;;;;;;;1.26;100.00;97003.88;1023870;29;20027;-51
2021/10/14 02:12:57;;;;;;;25.15;15.98;;;;;;;1.28;100.00;96997.84;1027483;28;20046;-51
2021/10/14 02:13:27;;;;;;;25.45;16.67;;;;;;;1.28;100.00;96997.84;1024016;28;20023;-50
2021/10/14 02:13:58;;;;;;;25.42;16.33;;;;;;;1.29;100.00;96996.94;1027909;28;20022;-50
2021/10/14 02:14:29;;;;;;;27.15;17.20;;;;;;;1.27;100.00;97001.28;1028025;28;20507;-52
2021/10/14 02:15:00;;;;;;;29.67;17.85;;;;;;;1.30;100.00;96996.06;1023850;29;20023;-49
2021/10/14 02:15:31;;;;;;;29.55;17.85;;;;;;;1.30;100.00;96998.66;1024060;29;20023;-51
2021/10/14 02:16:01;;;;;;;26.17;17.42;;;;;;;1.33;100.00;97005.50;1019972;29;20016;-51
2021/10/14 02:16:32;;;;;;;29.10;16.95;;;;;;;1.34;100.00;97009.78;1031831;28;20018;-49
2021/10/14 02:17:02;;;;;;;23.83;16.73;;;;;;;1.35;100.00;97007.19;1023844;29;20020;-51
2021/10/14 02:17:33;;;;;;;28.70;17.20;;;;;;;1.34;100.00;97007.22;1019978;29;20557;-50
2021/10/14 02:18:04;;;;;;;28.90;17.73;;;;;;;1.33;100.00;97006.38;1028016;28;20496;-51
2021/10/14 02:18:34;;;;;;;28.17;17.20;;;;;;;1.34;100.00;97010.63;1031997;28;20049;-50
2021/10/14 02:19:06;;;;;;;27.90;17.52;;;;;;;1.34;100.00;97014.94;1023810;28;20022;-51
2021/10/14 02:19:36;;;;;;;33.97;18.13;;;;;;;1.34;100.00;97013.22;1019951;28;20046;-51
2021/10/14 02:20:08;;;;;;;26.30;17.75;;;;;;;1.35;100.00;97009.78;1040030;28;20848;-51
2021/10/14 02:20:38;;;;;;;26.58;18.00;;;;;;;1.36;100.00;97010.63;1027926;28;20409;-50
2021/10/14 02:21:09;;;;;;;28.45;17.92;;;;;;;1.35;100.00;97008.91;1027958;28;20270;-53
2021/10/14 02:21:40;;;;;;;32.97;18.30;;;;;;;1.33;100.00;97010.66;1023927;29;20042;-51